createdAt,value
2022-11-27T00:01:47.525Z,3.40
2022-11-27T00:04:14.111Z,3.50
2022-11-27T00:06:41.154Z,3.40
2022-11-27T00:09:10.470Z,3.30
2022-11-27T00:11:39.337Z,3.30
2022-11-27T00:14:06.355Z,3.30
2022-11-27T00:16:33.294Z,3.20
2022-11-27T00:18:59.851Z,3.30
2022-11-27T00:21:27.924Z,3.20
2022-11-27T00:23:55.210Z,3.20
2022-11-27T00:26:22.018Z,3.10
2022-11-27T00:28:48.976Z,3.00
2022-11-27T00:31:19.731Z,3.00
2022-11-27T00:33:46.437Z,2.90
2022-11-27T00:36:13.554Z,3.10
2022-11-27T00:38:40.133Z,2.90
2022-11-27T00:41:07.760Z,2.80
2022-11-27T00:43:43.582Z,2.90
2022-11-27T00:46:14.947Z,3.00
2022-11-27T00:48:41.982Z,2.70
2022-11-27T00:51:10.049Z,2.60
2022-11-27T00:53:36.613Z,2.60
2022-11-27T00:56:03.194Z,2.50
2022-11-27T00:58:30.656Z,2.50
2022-11-27T01:00:58.123Z,2.50
2022-11-27T01:03:24.960Z,2.50
2022-11-27T01:05:51.824Z,2.50
2022-11-27T01:08:19.379Z,2.50
2022-11-27T01:10:54.553Z,2.50
2022-11-27T01:13:29.558Z,2.50
2022-11-27T01:16:03.803Z,2.50
2022-11-27T01:18:30.529Z,2.40
2022-11-27T01:20:57.104Z,2.30
2022-11-27T01:23:24.062Z,2.30
2022-11-27T01:25:53.275Z,2.30
2022-11-27T01:28:20.794Z,2.30
2022-11-27T01:30:47.716Z,2.30
2022-11-27T01:33:14.379Z,2.30
2022-11-27T01:35:40.963Z,2.20
2022-11-27T01:38:07.812Z,2.30
2022-11-27T01:40:34.395Z,2.20
2022-11-27T01:43:00.990Z,2.30
2022-11-27T01:45:27.568Z,2.30
2022-11-27T01:47:55.938Z,2.30
2022-11-27T01:50:24.776Z,2.30
2022-11-27T01:52:53.841Z,2.20
2022-11-27T01:55:27.475Z,2.20
2022-11-27T01:57:57.882Z,2.20
2022-11-27T02:00:24.674Z,2.10
2022-11-27T02:02:51.241Z,2.10
2022-11-27T02:05:19.771Z,2.10
2022-11-27T02:07:47.096Z,2.10
2022-11-27T02:10:14.347Z,2.00
2022-11-27T02:12:54.176Z,2.00
2022-11-27T02:15:25.027Z,2.00
2022-11-27T02:17:54.328Z,2.00
2022-11-27T02:20:23.956Z,2.00
2022-11-27T02:22:53.717Z,2.00
2022-11-27T02:25:22.818Z,2.00
2022-11-27T02:27:53.360Z,2.00
2022-11-27T02:30:20.182Z,2.00
2022-11-27T02:32:51.076Z,2.00
2022-11-27T02:35:26.337Z,1.90
2022-11-27T02:37:56.640Z,2.00
2022-11-27T02:40:29.316Z,2.00
2022-11-27T02:42:58.412Z,2.10
2022-11-27T02:45:28.597Z,2.10
2022-11-27T02:47:56.747Z,2.10
2022-11-27T02:50:25.050Z,2.10
2022-11-27T02:52:54.202Z,2.50
2022-11-27T02:55:23.136Z,2.40
2022-11-27T02:57:51.082Z,2.20
2022-11-27T03:00:17.892Z,2.20
2022-11-27T03:02:46.808Z,2.20
2022-11-27T03:05:16.466Z,2.10
2022-11-27T03:07:48.964Z,2.10
2022-11-27T03:10:19.186Z,2.00
2022-11-27T03:12:46.638Z,1.90
2022-11-27T03:15:13.331Z,1.90
2022-11-27T03:17:46.104Z,1.90
2022-11-27T03:20:24.261Z,1.80
2022-11-27T03:22:52.446Z,1.80
2022-11-27T03:25:19.035Z,1.80
2022-11-27T03:27:49.956Z,1.80
2022-11-27T03:30:16.499Z,1.70
2022-11-27T03:32:43.086Z,1.70
2022-11-27T03:35:11.221Z,1.70
2022-11-27T03:37:38.042Z,1.70
2022-11-27T03:40:05.449Z,1.70
2022-11-27T03:42:32.063Z,2.10
2022-11-27T03:45:07.902Z,1.60
2022-11-27T03:47:34.479Z,1.60
2022-11-27T03:50:07.453Z,1.60
2022-11-27T03:52:48.022Z,1.60
2022-11-27T03:55:14.556Z,1.60
2022-11-27T03:57:45.248Z,1.60
2022-11-27T04:00:12.181Z,1.60
2022-11-27T04:02:40.724Z,1.60
2022-11-27T04:05:07.568Z,1.60
2022-11-27T04:07:34.157Z,1.70
2022-11-27T04:10:00.759Z,1.70
2022-11-27T04:12:27.297Z,1.60
2022-11-27T04:14:53.879Z,1.70
2022-11-27T04:17:20.601Z,1.70
2022-11-27T04:19:47.095Z,1.70
2022-11-27T04:22:13.656Z,1.70
2022-11-27T04:24:40.597Z,1.80
2022-11-27T04:27:07.324Z,1.70
2022-11-27T04:29:33.891Z,1.70
2022-11-27T04:32:00.438Z,1.60
2022-11-27T04:34:26.937Z,1.70
2022-11-27T04:36:53.452Z,1.70
2022-11-27T04:39:21.704Z,1.70
2022-11-27T04:41:49.014Z,1.70
2022-11-27T04:44:15.563Z,1.70
2022-11-27T04:46:42.438Z,1.70
2022-11-27T04:49:09.849Z,1.70
2022-11-27T04:51:36.585Z,1.70
2022-11-27T04:54:03.163Z,1.70
2022-11-27T04:56:29.738Z,1.70
2022-11-27T04:58:56.299Z,1.70
2022-11-27T05:01:22.906Z,1.70
2022-11-27T05:03:49.447Z,1.60
2022-11-27T05:06:16.192Z,2.40
2022-11-27T05:08:42.717Z,1.60
2022-11-27T05:11:13.382Z,1.80
2022-11-27T05:13:40.117Z,1.70
2022-11-27T05:16:06.952Z,1.70
2022-11-27T05:18:33.819Z,1.70
2022-11-27T05:21:04.914Z,1.70
2022-11-27T05:23:31.975Z,1.70
2022-11-27T05:25:58.772Z,1.70
2022-11-27T05:28:27.029Z,1.80
2022-11-27T05:30:54.093Z,1.70
2022-11-27T05:33:20.821Z,1.80
2022-11-27T05:35:47.421Z,1.70
2022-11-27T05:38:14.068Z,1.80
2022-11-27T05:40:40.732Z,1.80
2022-11-27T05:43:07.285Z,1.80
2022-11-27T05:45:33.863Z,1.80
2022-11-27T05:48:00.686Z,1.90
2022-11-27T05:50:27.316Z,1.80
2022-11-27T05:52:53.892Z,2.50
2022-11-27T05:55:20.427Z,1.90
2022-11-27T05:57:46.989Z,2.10
2022-11-27T06:00:14.161Z,1.80
2022-11-27T06:02:40.805Z,1.80
2022-11-27T06:05:07.797Z,1.70
2022-11-27T06:07:34.364Z,1.70
2022-11-27T06:10:01.077Z,1.70
2022-11-27T06:12:27.639Z,1.60
2022-11-27T06:14:54.220Z,1.60
2022-11-27T06:17:20.786Z,1.60
2022-11-27T06:19:47.541Z,1.60
2022-11-27T06:22:14.113Z,1.60
2022-11-27T06:24:40.994Z,1.60
2022-11-27T06:27:07.788Z,1.60
2022-11-27T06:29:34.351Z,1.70
2022-11-27T06:32:00.952Z,1.60
2022-11-27T06:34:27.830Z,1.70
2022-11-27T06:36:54.356Z,1.60
2022-11-27T06:39:20.918Z,1.60
2022-11-27T06:41:47.464Z,1.60
2022-11-27T06:44:14.021Z,1.80
2022-11-27T06:46:40.551Z,1.60
2022-11-27T06:49:07.176Z,1.60
2022-11-27T06:51:33.776Z,1.60
2022-11-27T06:54:00.735Z,1.70
2022-11-27T06:56:28.794Z,1.70
2022-11-27T06:58:56.659Z,1.70
2022-11-27T07:01:24.256Z,1.70
2022-11-27T07:03:51.034Z,1.80
2022-11-27T07:06:19.004Z,1.80
2022-11-27T07:08:45.855Z,1.80
2022-11-27T07:11:18.176Z,2.00
2022-11-27T07:13:47.266Z,1.90
2022-11-27T07:16:14.312Z,1.90
2022-11-27T07:18:42.143Z,2.00
2022-11-27T07:21:09.155Z,1.90
2022-11-27T07:23:35.924Z,1.90
2022-11-27T07:26:06.301Z,1.90
2022-11-27T07:28:32.882Z,2.00
2022-11-27T07:30:59.652Z,2.00
2022-11-27T07:33:26.306Z,2.00
2022-11-27T07:36:19.302Z,2.20
2022-11-27T07:38:45.863Z,2.10
2022-11-27T07:41:13.213Z,2.10
2022-11-27T07:43:40.185Z,2.10
2022-11-27T07:46:07.688Z,2.40
2022-11-27T07:48:34.465Z,2.20
2022-11-27T07:51:01.340Z,2.30
2022-11-27T07:53:27.870Z,2.30
2022-11-27T07:55:54.433Z,2.50
2022-11-27T07:58:20.933Z,2.50
2022-11-27T08:00:48.415Z,2.50
2022-11-27T08:03:16.510Z,2.60
2022-11-27T08:05:43.076Z,2.70
2022-11-27T08:08:09.674Z,2.70
2022-11-27T08:10:37.019Z,2.70
2022-11-27T08:13:03.968Z,2.80
2022-11-27T08:15:30.494Z,2.90
2022-11-27T08:17:57.087Z,2.90
2022-11-27T08:20:23.752Z,2.90
2022-11-27T08:22:50.328Z,2.90
2022-11-27T08:25:17.041Z,2.90
2022-11-27T08:27:43.759Z,2.90
2022-11-27T08:30:10.727Z,2.90
2022-11-27T08:32:41.278Z,3.00
2022-11-27T08:35:08.206Z,3.10
2022-11-27T08:37:34.977Z,3.10
2022-11-27T08:40:01.890Z,3.10
2022-11-27T08:42:28.524Z,3.00
2022-11-27T08:44:55.149Z,3.10
2022-11-27T08:47:21.673Z,3.10
2022-11-27T08:49:48.638Z,3.10
2022-11-27T08:52:15.216Z,3.20
2022-11-27T08:54:42.114Z,3.40
2022-11-27T08:57:08.872Z,3.40
2022-11-27T08:59:35.383Z,3.60
2022-11-27T09:02:01.929Z,3.60
2022-11-27T09:04:28.831Z,3.50
2022-11-27T09:06:58.722Z,3.30
2022-11-27T09:09:25.511Z,3.30
2022-11-27T09:11:54.078Z,3.40
2022-11-27T09:14:20.715Z,3.40
2022-11-27T09:16:47.444Z,3.50
2022-11-27T09:19:14.037Z,3.50
2022-11-27T09:21:40.664Z,3.50
2022-11-27T09:24:07.487Z,3.50
2022-11-27T09:26:34.050Z,3.60
2022-11-27T09:29:00.626Z,3.50
2022-11-27T09:31:27.600Z,3.60
2022-11-27T09:33:54.399Z,3.50
2022-11-27T09:36:22.353Z,3.60
2022-11-27T09:38:49.018Z,3.60
2022-11-27T09:41:36.582Z,3.60
2022-11-27T09:44:06.508Z,3.60
2022-11-27T09:46:35.831Z,3.70
2022-11-27T09:49:05.117Z,3.70
2022-11-27T09:51:34.129Z,3.60
2022-11-27T09:54:12.053Z,3.70
2022-11-27T09:56:39.272Z,3.60
2022-11-27T09:59:11.725Z,3.80
2022-11-27T10:01:45.309Z,3.90
2022-11-27T10:04:17.541Z,4.00
2022-11-27T10:06:59.371Z,4.10
2022-11-27T10:09:55.537Z,4.10
2022-11-27T10:12:33.210Z,4.10
2022-11-27T10:15:09.050Z,4.10
2022-11-27T10:17:38.810Z,4.20
2022-11-27T10:20:08.387Z,4.20
2022-11-27T10:22:53.776Z,4.20
2022-11-27T10:25:38.678Z,4.20
2022-11-27T10:28:23.988Z,4.20
2022-11-27T10:30:53.132Z,4.30
2022-11-27T10:33:22.472Z,4.50
2022-11-27T10:35:49.699Z,4.60
2022-11-27T10:38:21.459Z,4.60
2022-11-27T10:40:59.936Z,4.60
2022-11-27T10:43:26.554Z,4.60
2022-11-27T10:46:04.596Z,4.70
2022-11-27T10:48:32.566Z,4.70
2022-11-27T10:51:00.278Z,4.70
2022-11-27T10:53:31.476Z,4.70
2022-11-27T10:56:19.075Z,4.70
2022-11-27T10:58:50.845Z,4.70
2022-11-27T11:01:19.129Z,4.70
2022-11-27T11:03:46.164Z,4.70
2022-11-27T11:06:21.160Z,4.90
2022-11-27T11:08:49.557Z,4.80
2022-11-27T11:11:24.807Z,4.80
2022-11-27T11:13:51.474Z,4.90
2022-11-27T11:16:24.413Z,5.00
2022-11-27T11:18:52.338Z,5.00
2022-11-27T11:21:22.557Z,5.00
2022-11-27T11:24:03.321Z,4.90
2022-11-27T11:26:31.905Z,5.00
2022-11-27T11:28:59.485Z,5.10
2022-11-27T11:31:31.084Z,5.00
2022-11-27T11:34:02.599Z,5.00
2022-11-27T11:36:29.824Z,5.00
2022-11-27T11:38:56.859Z,5.00
2022-11-27T11:41:24.409Z,5.10
2022-11-27T11:43:55.091Z,5.10
2022-11-27T11:46:23.864Z,5.20
2022-11-27T11:48:54.320Z,5.20
2022-11-27T11:51:29.519Z,5.20
2022-11-27T11:54:19.424Z,5.30
2022-11-27T11:56:49.573Z,5.30
2022-11-27T11:59:32.799Z,5.40
2022-11-27T12:02:18.085Z,5.30
2022-11-27T12:04:59.983Z,5.30
2022-11-27T12:07:35.173Z,5.40
2022-11-27T12:10:11.143Z,5.30
2022-11-27T12:12:55.996Z,5.40
2022-11-27T12:15:29.173Z,5.40
2022-11-27T12:17:58.826Z,5.40
2022-11-27T12:20:25.386Z,5.50
2022-11-27T12:22:57.011Z,5.40
2022-11-27T12:25:37.785Z,5.50
2022-11-27T12:28:16.192Z,5.40
2022-11-27T12:30:50.586Z,5.40
2022-11-27T12:33:35.508Z,5.50
2022-11-27T12:36:11.246Z,5.50
2022-11-27T12:38:42.459Z,5.50
2022-11-27T12:41:09.023Z,5.50
2022-11-27T12:43:38.307Z,5.50
2022-11-27T12:46:19.867Z,5.60
2022-11-27T12:48:50.520Z,5.60
2022-11-27T12:51:31.776Z,5.60
2022-11-27T12:54:03.604Z,5.60
2022-11-27T12:56:37.407Z,5.60
2022-11-27T12:59:15.952Z,5.70
2022-11-27T13:01:45.377Z,5.70
2022-11-27T13:04:22.122Z,5.80
2022-11-27T13:06:57.904Z,5.90
2022-11-27T13:09:28.005Z,5.70
2022-11-27T13:11:55.342Z,5.70
2022-11-27T13:14:23.977Z,5.70
2022-11-27T13:16:52.825Z,5.80
2022-11-27T13:19:24.981Z,5.80
2022-11-27T13:21:53.012Z,5.80
2022-11-27T13:24:20.283Z,5.90
2022-11-27T13:26:52.025Z,5.90
2022-11-27T13:29:26.987Z,5.90
2022-11-27T13:31:55.603Z,5.90
2022-11-27T13:34:24.640Z,5.90
2022-11-27T13:36:59.142Z,5.90
2022-11-27T13:39:28.730Z,6.00
2022-11-27T13:42:07.653Z,6.10
2022-11-27T13:44:37.032Z,6.00
2022-11-27T13:47:09.246Z,6.00
2022-11-27T13:49:37.844Z,5.90
2022-11-27T13:52:09.624Z,5.90
2022-11-27T13:54:36.502Z,6.00
2022-11-27T13:57:14.391Z,6.00
2022-11-27T13:59:41.665Z,6.00
2022-11-27T14:02:11.126Z,6.10
2022-11-27T14:04:50.593Z,6.00
2022-11-27T14:07:21.389Z,6.00
2022-11-27T14:09:49.791Z,5.90
2022-11-27T14:12:18.071Z,6.00
2022-11-27T14:14:45.288Z,6.10
2022-11-27T14:17:23.633Z,6.00
2022-11-27T14:19:58.665Z,6.00
2022-11-27T14:23:07.083Z,6.00
2022-11-27T14:25:29.377Z,6.00
2022-11-27T14:28:11.350Z,6.00
2022-11-27T14:30:40.974Z,6.00
2022-11-27T14:33:16.846Z,5.90
2022-11-27T14:35:47.803Z,5.90
2022-11-27T14:38:15.328Z,5.80
2022-11-27T14:40:41.957Z,5.80
2022-11-27T14:43:09.642Z,5.80
2022-11-27T14:45:36.568Z,5.80
2022-11-27T14:48:03.626Z,5.80
2022-11-27T14:50:30.179Z,5.80
2022-11-27T14:52:56.973Z,5.80
2022-11-27T14:55:23.751Z,5.80
2022-11-27T14:57:50.817Z,5.80
2022-11-27T15:00:24.164Z,5.70
2022-11-27T15:02:51.296Z,5.60
2022-11-27T15:05:22.688Z,5.60
2022-11-27T15:07:51.177Z,5.70
2022-11-27T15:10:21.954Z,5.60
2022-11-27T15:12:49.209Z,5.60
2022-11-27T15:15:18.295Z,5.60
2022-11-27T15:17:46.409Z,5.50
2022-11-27T15:20:14.939Z,5.50
2022-11-27T15:22:51.484Z,5.50
2022-11-27T15:25:34.350Z,5.50
2022-11-27T15:28:01.165Z,5.50
2022-11-27T15:30:28.081Z,5.40
2022-11-27T15:32:55.777Z,5.40
2022-11-27T15:35:22.325Z,5.40
2022-11-27T15:37:48.944Z,5.40
2022-11-27T15:40:24.381Z,5.30
2022-11-27T15:42:50.892Z,5.20
2022-11-27T15:45:17.424Z,5.20
2022-11-27T15:47:44.404Z,5.20
2022-11-27T15:50:14.274Z,5.20
2022-11-27T15:52:41.012Z,5.20
2022-11-27T15:55:07.915Z,5.60
2022-11-27T15:57:34.469Z,5.50
2022-11-27T16:00:01.070Z,5.40
2022-11-27T16:02:30.300Z,5.30
2022-11-27T16:04:56.932Z,5.20
2022-11-27T16:07:23.581Z,5.20
2022-11-27T16:09:50.110Z,5.50
2022-11-27T16:12:16.695Z,5.10
2022-11-27T16:14:43.451Z,5.10
2022-11-27T16:17:10.275Z,5.10
2022-11-27T16:19:36.840Z,5.10
2022-11-27T16:22:03.601Z,5.00
2022-11-27T16:24:30.156Z,5.00
2022-11-27T16:26:56.770Z,5.00
2022-11-27T16:29:23.306Z,5.00
2022-11-27T16:31:50.087Z,5.00
2022-11-27T16:34:16.938Z,5.00
2022-11-27T16:36:43.773Z,5.00
2022-11-27T16:39:11.158Z,4.90
2022-11-27T16:41:37.851Z,4.90
2022-11-27T16:44:09.883Z,4.80
2022-11-27T16:46:38.689Z,4.80
2022-11-27T16:49:06.477Z,4.80
2022-11-27T16:51:34.006Z,4.80
2022-11-27T16:54:04.699Z,4.80
2022-11-27T16:56:32.230Z,4.70
2022-11-27T16:59:02.681Z,4.70
2022-11-27T17:01:30.794Z,4.70
2022-11-27T17:03:57.883Z,4.70
2022-11-27T17:06:28.725Z,4.70
2022-11-27T17:08:56.001Z,4.70
2022-11-27T17:11:24.819Z,4.70
2022-11-27T17:13:51.953Z,4.70
2022-11-27T17:16:19.059Z,4.70
2022-11-27T17:18:45.807Z,4.70
2022-11-27T17:21:14.750Z,4.70
2022-11-27T17:23:46.602Z,4.60
2022-11-27T17:26:14.205Z,4.60
2022-11-27T17:28:40.790Z,4.70
2022-11-27T17:31:26.787Z,4.70
2022-11-27T17:33:54.341Z,4.70
2022-11-27T17:36:20.969Z,4.70
2022-11-27T17:38:47.536Z,4.70
2022-11-27T17:41:14.855Z,4.70
2022-11-27T17:43:41.942Z,4.70
2022-11-27T17:46:30.579Z,4.70
2022-11-27T17:48:59.002Z,4.70
2022-11-27T17:51:26.327Z,4.60
2022-11-27T17:53:52.885Z,4.60
2022-11-27T17:56:20.438Z,4.60
2022-11-27T17:58:47.229Z,4.60
2022-11-27T18:01:23.987Z,4.60
2022-11-27T18:03:51.496Z,4.70
2022-11-27T18:06:19.012Z,4.70
2022-11-27T18:08:46.436Z,4.60
2022-11-27T18:11:14.659Z,4.60
2022-11-27T18:13:41.481Z,4.60
2022-11-27T18:16:13.277Z,4.60
2022-11-27T18:18:40.266Z,4.60
2022-11-27T18:21:08.679Z,4.70
2022-11-27T18:23:36.048Z,4.70
2022-11-27T18:26:06.062Z,4.70
2022-11-27T18:28:32.586Z,4.70
2022-11-27T18:31:03.781Z,4.70
2022-11-27T18:33:30.303Z,4.70
2022-11-27T18:35:56.968Z,4.70
2022-11-27T18:38:23.517Z,4.70
2022-11-27T18:40:50.046Z,4.70
2022-11-27T18:43:16.595Z,4.70
2022-11-27T18:45:43.688Z,4.70
2022-11-27T18:48:10.241Z,4.70
2022-11-27T18:50:36.854Z,4.70
2022-11-27T18:53:03.725Z,7.00
2022-11-27T18:55:34.712Z,6.60
2022-11-27T18:58:01.319Z,6.00
2022-11-27T19:00:27.885Z,5.60
2022-11-27T19:02:54.599Z,5.40
2022-11-27T19:05:21.424Z,5.20
2022-11-27T19:07:48.135Z,5.10
2022-11-27T19:10:14.896Z,5.00
2022-11-27T19:12:41.453Z,4.90
2022-11-27T19:15:08.382Z,4.90
2022-11-27T19:17:35.440Z,4.90
2022-11-27T19:20:01.996Z,4.80
2022-11-27T19:22:28.499Z,4.70
2022-11-27T19:24:55.030Z,4.70
2022-11-27T19:27:21.695Z,4.70
2022-11-27T19:29:48.937Z,4.70
2022-11-27T19:32:15.485Z,4.60
2022-11-27T19:34:42.293Z,4.60
2022-11-27T19:37:09.221Z,4.60
2022-11-27T19:39:35.792Z,4.60
2022-11-27T19:42:02.421Z,4.60
2022-11-27T19:44:29.024Z,4.70
2022-11-27T19:46:55.586Z,4.60
2022-11-27T19:49:22.681Z,4.60
2022-11-27T19:51:49.797Z,4.60
2022-11-27T19:54:19.060Z,4.60
2022-11-27T19:56:45.939Z,4.60
2022-11-27T19:59:12.693Z,4.60
2022-11-27T20:01:40.168Z,4.60
2022-11-27T20:04:07.732Z,4.60
2022-11-27T20:06:34.372Z,4.60
2022-11-27T20:09:02.372Z,4.60
2022-11-27T20:11:34.185Z,4.60
2022-11-27T20:14:02.437Z,4.60
2022-11-27T20:16:29.269Z,4.60
2022-11-27T20:18:55.884Z,4.50
2022-11-27T20:21:23.544Z,4.40
2022-11-27T20:23:50.854Z,4.50
2022-11-27T20:26:21.921Z,4.40
2022-11-27T20:28:48.859Z,4.40
2022-11-27T20:31:17.172Z,4.50
2022-11-27T20:33:43.877Z,4.50
2022-11-27T20:36:11.866Z,4.50
2022-11-27T20:38:38.969Z,4.50
2022-11-27T20:41:06.780Z,4.50
2022-11-27T20:43:33.301Z,4.40
2022-11-27T20:46:01.085Z,4.50
2022-11-27T20:48:28.039Z,4.50
2022-11-27T20:50:54.567Z,4.40
2022-11-27T20:53:21.142Z,4.40
2022-11-27T20:55:47.788Z,4.50
2022-11-27T20:58:14.302Z,4.40
2022-11-27T21:00:40.910Z,4.40
2022-11-27T21:03:07.514Z,4.40
2022-11-27T21:05:34.151Z,4.40
2022-11-27T21:08:00.960Z,4.40
2022-11-27T21:10:28.345Z,4.30
2022-11-27T21:12:55.024Z,4.30
2022-11-27T21:15:21.584Z,4.30
2022-11-27T21:17:48.136Z,4.30
2022-11-27T21:20:14.705Z,4.30
2022-11-27T21:22:43.902Z,4.30
2022-11-27T21:25:10.578Z,4.30
2022-11-27T21:27:37.412Z,4.30
2022-11-27T21:30:05.489Z,4.30
2022-11-27T21:32:32.044Z,4.60
2022-11-27T21:34:58.580Z,4.40
2022-11-27T21:37:25.166Z,4.40
2022-11-27T21:39:51.895Z,4.30
2022-11-27T21:42:18.499Z,4.30
2022-11-27T21:44:45.012Z,4.40
2022-11-27T21:47:11.942Z,4.40
2022-11-27T21:49:39.253Z,4.40
2022-11-27T21:52:06.413Z,4.40
2022-11-27T21:54:33.317Z,4.60
2022-11-27T21:56:59.888Z,4.30
2022-11-27T21:59:26.554Z,4.30
2022-11-27T22:01:53.264Z,4.40
2022-11-27T22:04:19.873Z,4.30
2022-11-27T22:06:47.021Z,4.30
2022-11-27T22:09:15.625Z,4.30
2022-11-27T22:11:43.545Z,4.30
2022-11-27T22:14:10.125Z,4.30
2022-11-27T22:16:44.403Z,4.30
2022-11-27T22:19:11.690Z,4.30
2022-11-27T22:21:38.229Z,4.30
2022-11-27T22:24:04.884Z,4.30
2022-11-27T22:26:31.391Z,4.30
2022-11-27T22:28:58.510Z,4.30
2022-11-27T22:31:35.391Z,4.30
2022-11-27T22:34:01.923Z,4.30
2022-11-27T22:36:33.001Z,4.30
2022-11-27T22:39:00.728Z,4.30
2022-11-27T22:41:28.080Z,4.30
2022-11-27T22:43:54.661Z,4.30
2022-11-27T22:46:22.482Z,4.20
2022-11-27T22:48:53.947Z,4.20
2022-11-27T22:51:20.829Z,4.30
2022-11-27T22:53:47.381Z,4.20
2022-11-27T22:56:14.091Z,4.30
2022-11-27T22:58:41.859Z,4.20
2022-11-27T23:01:09.494Z,4.20
2022-11-27T23:03:36.127Z,4.20
2022-11-27T23:06:03.946Z,4.20
2022-11-27T23:08:30.449Z,4.20
2022-11-27T23:10:56.968Z,4.20
2022-11-27T23:13:23.634Z,4.20
2022-11-27T23:15:50.170Z,4.20
2022-11-27T23:18:16.824Z,4.20
2022-11-27T23:20:43.703Z,4.10
2022-11-27T23:23:10.747Z,4.10
2022-11-27T23:25:37.793Z,4.10
2022-11-27T23:28:05.025Z,4.00
2022-11-27T23:30:32.518Z,4.10
2022-11-27T23:32:59.094Z,4.00
2022-11-27T23:35:25.737Z,4.10
2022-11-27T23:37:52.475Z,4.00
2022-11-27T23:40:20.003Z,4.10
2022-11-27T23:42:46.607Z,4.10
2022-11-27T23:45:13.159Z,4.10
2022-11-27T23:47:39.722Z,4.10
2022-11-27T23:50:06.823Z,4.10
2022-11-27T23:52:33.410Z,4.10
2022-11-27T23:54:59.953Z,4.10
2022-11-27T23:57:26.576Z,4.10
2022-11-27T23:59:53.118Z,4.10
